sensor_id;sensor_type;location;lat;lon;timestamp;P1;durP1;ratioP1;P2;durP2;ratioP2
7969;SDS011;4030;52.362;9.206;2022-12-22T00:01:36;2.17;;;1.20;;
7969;SDS011;4030;52.362;9.206;2022-12-22T00:04:21;2.03;;;1.23;;
7969;SDS011;4030;52.362;9.206;2022-12-22T00:07:05;1.43;;;1.20;;
7969;SDS011;4030;52.362;9.206;2022-12-22T00:09:50;1.10;;;0.97;;
7969;SDS011;4030;52.362;9.206;2022-12-22T00:12:34;1.10;;;1.00;;
7969;SDS011;4030;52.362;9.206;2022-12-22T00:15:19;1.07;;;0.90;;
7969;SDS011;4030;52.362;9.206;2022-12-22T00:18:04;1.13;;;1.00;;
7969;SDS011;4030;52.362;9.206;2022-12-22T00:20:49;1.27;;;1.10;;
7969;SDS011;4030;52.362;9.206;2022-12-22T00:23:33;0.93;;;0.93;;
7969;SDS011;4030;52.362;9.206;2022-12-22T00:26:17;1.10;;;0.90;;
7969;SDS011;4030;52.362;9.206;2022-12-22T00:29:02;1.73;;;1.00;;
7969;SDS011;4030;52.362;9.206;2022-12-22T00:31:47;1.30;;;1.20;;
7969;SDS011;4030;52.362;9.206;2022-12-22T00:34:34;1.17;;;1.00;;
7969;SDS011;4030;52.362;9.206;2022-12-22T00:37:27;1.10;;;1.00;;
7969;SDS011;4030;52.362;9.206;2022-12-22T00:40:17;0.93;;;0.93;;
7969;SDS011;4030;52.362;9.206;2022-12-22T00:43:04;1.43;;;1.07;;
7969;SDS011;4030;52.362;9.206;2022-12-22T00:45:49;0.83;;;0.80;;
7969;SDS011;4030;52.362;9.206;2022-12-22T00:48:34;1.07;;;0.90;;
7969;SDS011;4030;52.362;9.206;2022-12-22T00:51:19;1.17;;;1.00;;
7969;SDS011;4030;52.362;9.206;2022-12-22T00:54:06;1.43;;;1.00;;
7969;SDS011;4030;52.362;9.206;2022-12-22T00:56:52;1.40;;;1.07;;
7969;SDS011;4030;52.362;9.206;2022-12-22T00:59:36;1.47;;;0.90;;
7969;SDS011;4030;52.362;9.206;2022-12-22T01:02:21;0.73;;;0.73;;
7969;SDS011;4030;52.362;9.206;2022-12-22T01:05:05;1.17;;;0.87;;
7969;SDS011;4030;52.362;9.206;2022-12-22T01:07:50;2.27;;;1.03;;
7969;SDS011;4030;52.362;9.206;2022-12-22T01:10:35;0.90;;;0.90;;
7969;SDS011;4030;52.362;9.206;2022-12-22T01:13:19;0.98;;;0.82;;
7969;SDS011;4030;52.362;9.206;2022-12-22T01:16:03;1.13;;;0.93;;
7969;SDS011;4030;52.362;9.206;2022-12-22T01:18:48;1.10;;;0.90;;
7969;SDS011;4030;52.362;9.206;2022-12-22T01:21:32;0.90;;;0.90;;
7969;SDS011;4030;52.362;9.206;2022-12-22T01:24:18;1.43;;;1.00;;
7969;SDS011;4030;52.362;9.206;2022-12-22T01:27:02;1.37;;;1.07;;
7969;SDS011;4030;52.362;9.206;2022-12-22T01:29:47;1.30;;;0.90;;
7969;SDS011;4030;52.362;9.206;2022-12-22T01:32:31;1.10;;;1.00;;
7969;SDS011;4030;52.362;9.206;2022-12-22T01:35:16;1.17;;;0.90;;
7969;SDS011;4030;52.362;9.206;2022-12-22T01:38:07;1.00;;;0.83;;
7969;SDS011;4030;52.362;9.206;2022-12-22T01:40:51;1.40;;;1.00;;
7969;SDS011;4030;52.362;9.206;2022-12-22T01:43:37;1.20;;;1.10;;
7969;SDS011;4030;52.362;9.206;2022-12-22T01:46:29;1.10;;;1.00;;
7969;SDS011;4030;52.362;9.206;2022-12-22T01:49:17;1.27;;;1.03;;
7969;SDS011;4030;52.362;9.206;2022-12-22T01:52:08;2.00;;;1.20;;
7969;SDS011;4030;52.362;9.206;2022-12-22T01:54:55;1.13;;;1.03;;
7969;SDS011;4030;52.362;9.206;2022-12-22T01:57:42;1.57;;;1.10;;
7969;SDS011;4030;52.362;9.206;2022-12-22T02:00:27;1.10;;;1.00;;
7969;SDS011;4030;52.362;9.206;2022-12-22T02:03:15;1.03;;;1.03;;
7969;SDS011;4030;52.362;9.206;2022-12-22T02:09:18;0.90;;;0.90;;
7969;SDS011;4030;52.362;9.206;2022-12-22T02:12:28;1.50;;;1.10;;
7969;SDS011;4030;52.362;9.206;2022-12-22T02:15:49;1.13;;;1.03;;
7969;SDS011;4030;52.362;9.206;2022-12-22T02:18:58;1.30;;;1.20;;
7969;SDS011;4030;52.362;9.206;2022-12-22T02:25:11;1.20;;;1.10;;
7969;SDS011;4030;52.362;9.206;2022-12-22T02:28:00;1.90;;;1.30;;
7969;SDS011;4030;52.362;9.206;2022-12-22T02:30:46;1.20;;;1.10;;
7969;SDS011;4030;52.362;9.206;2022-12-22T02:33:32;1.50;;;1.20;;
7969;SDS011;4030;52.362;9.206;2022-12-22T02:43:04;1.33;;;0.90;;
7969;SDS011;4030;52.362;9.206;2022-12-22T02:46:18;1.47;;;1.10;;
7969;SDS011;4030;52.362;9.206;2022-12-22T02:52:11;1.20;;;1.10;;
7969;SDS011;4030;52.362;9.206;2022-12-22T02:55:11;1.27;;;1.17;;
7969;SDS011;4030;52.362;9.206;2022-12-22T02:57:57;1.30;;;1.20;;
7969;SDS011;4030;52.362;9.206;2022-12-22T03:00:42;1.30;;;1.20;;
7969;SDS011;4030;52.362;9.206;2022-12-22T03:03:26;1.30;;;1.20;;
7969;SDS011;4030;52.362;9.206;2022-12-22T03:06:11;1.10;;;1.00;;
7969;SDS011;4030;52.362;9.206;2022-12-22T03:08:55;1.20;;;1.00;;
7969;SDS011;4030;52.362;9.206;2022-12-22T03:11:39;1.33;;;1.20;;
7969;SDS011;4030;52.362;9.206;2022-12-22T03:14:23;1.90;;;1.20;;
7969;SDS011;4030;52.362;9.206;2022-12-22T03:17:07;1.20;;;1.10;;
7969;SDS011;4030;52.362;9.206;2022-12-22T03:19:51;1.17;;;1.10;;
7969;SDS011;4030;52.362;9.206;2022-12-22T03:22:35;1.30;;;1.20;;
7969;SDS011;4030;52.362;9.206;2022-12-22T03:25:19;1.30;;;1.10;;
7969;SDS011;4030;52.362;9.206;2022-12-22T03:28:04;1.23;;;1.13;;
7969;SDS011;4030;52.362;9.206;2022-12-22T03:30:31;1.60;;;1.10;;
7969;SDS011;4030;52.362;9.206;2022-12-22T03:32:57;0.90;;;0.90;;
7969;SDS011;4030;52.362;9.206;2022-12-22T03:35:23;1.60;;;1.10;;
7969;SDS011;4030;52.362;9.206;2022-12-22T03:37:49;1.20;;;1.10;;
7969;SDS011;4030;52.362;9.206;2022-12-22T03:40:15;0.93;;;0.90;;
7969;SDS011;4030;52.362;9.206;2022-12-22T03:42:41;1.40;;;1.10;;
7969;SDS011;4030;52.362;9.206;2022-12-22T03:45:25;1.07;;;1.00;;
7969;SDS011;4030;52.362;9.206;2022-12-22T03:48:09;1.20;;;1.10;;
7969;SDS011;4030;52.362;9.206;2022-12-22T03:50:35;1.10;;;1.00;;
7969;SDS011;4030;52.362;9.206;2022-12-22T03:53:01;1.00;;;0.90;;
7969;SDS011;4030;52.362;9.206;2022-12-22T03:55:28;1.20;;;1.10;;
7969;SDS011;4030;52.362;9.206;2022-12-22T03:57:54;1.20;;;1.10;;
7969;SDS011;4030;52.362;9.206;2022-12-22T04:00:20;1.20;;;1.10;;
7969;SDS011;4030;52.362;9.206;2022-12-22T04:02:45;1.30;;;1.20;;
7969;SDS011;4030;52.362;9.206;2022-12-22T04:05:11;1.30;;;1.20;;
7969;SDS011;4030;52.362;9.206;2022-12-22T04:07:37;1.27;;;1.17;;
7969;SDS011;4030;52.362;9.206;2022-12-22T04:10:03;1.30;;;1.20;;
7969;SDS011;4030;52.362;9.206;2022-12-22T04:12:52;1.30;;;1.20;;
7969;SDS011;4030;52.362;9.206;2022-12-22T04:15:22;1.33;;;1.20;;
7969;SDS011;4030;52.362;9.206;2022-12-22T04:17:50;1.20;;;1.10;;
7969;SDS011;4030;52.362;9.206;2022-12-22T04:20:16;1.60;;;1.20;;
7969;SDS011;4030;52.362;9.206;2022-12-22T04:22:43;1.17;;;1.00;;
7969;SDS011;4030;52.362;9.206;2022-12-22T04:25:09;1.40;;;1.30;;
7969;SDS011;4030;52.362;9.206;2022-12-22T04:27:35;1.30;;;1.20;;
7969;SDS011;4030;52.362;9.206;2022-12-22T04:30:02;1.40;;;1.30;;
7969;SDS011;4030;52.362;9.206;2022-12-22T04:32:29;1.50;;;1.40;;
7969;SDS011;4030;52.362;9.206;2022-12-22T04:34:55;1.30;;;1.20;;
7969;SDS011;4030;52.362;9.206;2022-12-22T04:37:21;1.37;;;1.27;;
7969;SDS011;4030;52.362;9.206;2022-12-22T04:39:46;1.20;;;1.10;;
7969;SDS011;4030;52.362;9.206;2022-12-22T04:42:12;1.40;;;1.30;;
7969;SDS011;4030;52.362;9.206;2022-12-22T04:44:38;1.50;;;1.40;;
7969;SDS011;4030;52.362;9.206;2022-12-22T04:47:04;1.50;;;1.40;;
7969;SDS011;4030;52.362;9.206;2022-12-22T04:49:31;1.47;;;1.30;;
7969;SDS011;4030;52.362;9.206;2022-12-22T04:51:57;1.50;;;1.30;;
7969;SDS011;4030;52.362;9.206;2022-12-22T04:54:23;1.20;;;1.10;;
7969;SDS011;4030;52.362;9.206;2022-12-22T04:56:49;1.30;;;1.20;;
7969;SDS011;4030;52.362;9.206;2022-12-22T04:59:15;1.67;;;1.20;;
7969;SDS011;4030;52.362;9.206;2022-12-22T05:01:41;1.30;;;1.20;;
7969;SDS011;4030;52.362;9.206;2022-12-22T05:04:07;1.30;;;1.20;;
7969;SDS011;4030;52.362;9.206;2022-12-22T05:06:33;1.40;;;1.30;;
7969;SDS011;4030;52.362;9.206;2022-12-22T05:08:59;1.70;;;1.37;;
7969;SDS011;4030;52.362;9.206;2022-12-22T05:11:25;1.30;;;1.20;;
7969;SDS011;4030;52.362;9.206;2022-12-22T05:13:51;1.20;;;1.10;;
7969;SDS011;4030;52.362;9.206;2022-12-22T05:16:17;1.40;;;1.30;;
7969;SDS011;4030;52.362;9.206;2022-12-22T05:18:44;2.30;;;1.30;;
7969;SDS011;4030;52.362;9.206;2022-12-22T05:21:14;1.53;;;1.30;;
7969;SDS011;4030;52.362;9.206;2022-12-22T05:23:45;1.50;;;1.30;;
7969;SDS011;4030;52.362;9.206;2022-12-22T05:26:12;1.43;;;1.20;;
7969;SDS011;4030;52.362;9.206;2022-12-22T05:28:39;1.13;;;1.10;;
7969;SDS011;4030;52.362;9.206;2022-12-22T05:31:08;1.30;;;1.20;;
7969;SDS011;4030;52.362;9.206;2022-12-22T05:33:40;1.43;;;1.33;;
7969;SDS011;4030;52.362;9.206;2022-12-22T05:36:06;1.63;;;1.47;;
7969;SDS011;4030;52.362;9.206;2022-12-22T05:38:32;1.47;;;1.37;;
7969;SDS011;4030;52.362;9.206;2022-12-22T05:40:58;1.50;;;1.30;;
7969;SDS011;4030;52.362;9.206;2022-12-22T05:43:24;1.43;;;1.23;;
7969;SDS011;4030;52.362;9.206;2022-12-22T05:45:50;1.67;;;1.40;;
7969;SDS011;4030;52.362;9.206;2022-12-22T05:48:17;1.30;;;1.20;;
7969;SDS011;4030;52.362;9.206;2022-12-22T05:50:43;1.73;;;1.40;;
7969;SDS011;4030;52.362;9.206;2022-12-22T05:53:09;1.58;;;1.42;;
7969;SDS011;4030;52.362;9.206;2022-12-22T05:55:34;1.57;;;1.40;;
7969;SDS011;4030;52.362;9.206;2022-12-22T05:58:00;1.98;;;1.52;;
7969;SDS011;4030;52.362;9.206;2022-12-22T06:00:29;1.80;;;1.50;;
7969;SDS011;4030;52.362;9.206;2022-12-22T06:02:56;1.70;;;1.57;;
7969;SDS011;4030;52.362;9.206;2022-12-22T06:05:22;1.73;;;1.63;;
7969;SDS011;4030;52.362;9.206;2022-12-22T06:07:48;1.50;;;1.40;;
7969;SDS011;4030;52.362;9.206;2022-12-22T06:10:15;1.83;;;1.40;;
7969;SDS011;4030;52.362;9.206;2022-12-22T06:12:41;1.83;;;1.57;;
7969;SDS011;4030;52.362;9.206;2022-12-22T06:15:08;1.73;;;1.50;;
7969;SDS011;4030;52.362;9.206;2022-12-22T06:17:36;1.60;;;1.50;;
7969;SDS011;4030;52.362;9.206;2022-12-22T06:20:03;1.60;;;1.37;;
7969;SDS011;4030;52.362;9.206;2022-12-22T06:22:30;1.43;;;1.33;;
7969;SDS011;4030;52.362;9.206;2022-12-22T06:24:57;1.60;;;1.50;;
7969;SDS011;4030;52.362;9.206;2022-12-22T06:27:23;1.83;;;1.67;;
7969;SDS011;4030;52.362;9.206;2022-12-22T06:29:48;3.33;;;1.80;;
7969;SDS011;4030;52.362;9.206;2022-12-22T06:32:14;2.10;;;1.90;;
7969;SDS011;4030;52.362;9.206;2022-12-22T06:34:40;2.80;;;2.17;;
7969;SDS011;4030;52.362;9.206;2022-12-22T06:37:06;1.90;;;1.80;;
7969;SDS011;4030;52.362;9.206;2022-12-22T06:39:32;2.30;;;2.10;;
7969;SDS011;4030;52.362;9.206;2022-12-22T06:41:57;2.20;;;2.00;;
7969;SDS011;4030;52.362;9.206;2022-12-22T06:44:42;2.20;;;2.00;;
7969;SDS011;4030;52.362;9.206;2022-12-22T06:47:08;2.23;;;1.97;;
7969;SDS011;4030;52.362;9.206;2022-12-22T06:49:34;2.10;;;1.90;;
7969;SDS011;4030;52.362;9.206;2022-12-22T06:52:00;2.40;;;2.20;;
7969;SDS011;4030;52.362;9.206;2022-12-22T06:54:30;2.33;;;2.13;;
7969;SDS011;4030;52.362;9.206;2022-12-22T06:56:56;3.13;;;1.87;;
7969;SDS011;4030;52.362;9.206;2022-12-22T06:59:22;2.20;;;2.00;;
7969;SDS011;4030;52.362;9.206;2022-12-22T07:01:48;2.53;;;1.97;;
7969;SDS011;4030;52.362;9.206;2022-12-22T07:04:14;2.60;;;2.03;;
7969;SDS011;4030;52.362;9.206;2022-12-22T07:06:44;2.27;;;1.83;;
7969;SDS011;4030;52.362;9.206;2022-12-22T07:09:11;2.43;;;2.03;;
7969;SDS011;4030;52.362;9.206;2022-12-22T07:11:36;2.43;;;2.23;;
7969;SDS011;4030;52.362;9.206;2022-12-22T07:14:02;2.40;;;2.20;;
7969;SDS011;4030;52.362;9.206;2022-12-22T07:16:28;3.00;;;2.50;;
7969;SDS011;4030;52.362;9.206;2022-12-22T07:18:54;3.47;;;2.80;;
7969;SDS011;4030;52.362;9.206;2022-12-22T07:21:20;2.47;;;2.27;;
7969;SDS011;4030;52.362;9.206;2022-12-22T07:23:46;2.33;;;2.13;;
7969;SDS011;4030;52.362;9.206;2022-12-22T07:26:12;2.93;;;2.30;;
7969;SDS011;4030;52.362;9.206;2022-12-22T07:28:38;2.43;;;2.23;;
7969;SDS011;4030;52.362;9.206;2022-12-22T07:31:05;2.77;;;2.30;;
7969;SDS011;4030;52.362;9.206;2022-12-22T07:33:31;2.43;;;2.23;;
7969;SDS011;4030;52.362;9.206;2022-12-22T07:36:08;2.60;;;2.40;;
7969;SDS011;4030;52.362;9.206;2022-12-22T07:38:41;2.90;;;2.70;;
7969;SDS011;4030;52.362;9.206;2022-12-22T07:41:09;2.70;;;2.30;;
7969;SDS011;4030;52.362;9.206;2022-12-22T07:43:55;2.63;;;2.20;;
7969;SDS011;4030;52.362;9.206;2022-12-22T07:46:23;2.60;;;2.40;;
7969;SDS011;4030;52.362;9.206;2022-12-22T07:48:51;2.40;;;2.20;;
7969;SDS011;4030;52.362;9.206;2022-12-22T07:51:36;2.43;;;2.23;;
7969;SDS011;4030;52.362;9.206;2022-12-22T07:54:05;2.60;;;2.40;;
7969;SDS011;4030;52.362;9.206;2022-12-22T07:56:32;2.67;;;2.47;;
7969;SDS011;4030;52.362;9.206;2022-12-22T07:58:58;2.80;;;2.40;;
7969;SDS011;4030;52.362;9.206;2022-12-22T08:01:24;2.60;;;2.40;;
7969;SDS011;4030;52.362;9.206;2022-12-22T08:03:50;2.50;;;2.30;;
7969;SDS011;4030;52.362;9.206;2022-12-22T08:06:16;2.40;;;2.20;;
7969;SDS011;4030;52.362;9.206;2022-12-22T08:08:42;2.50;;;2.30;;
7969;SDS011;4030;52.362;9.206;2022-12-22T08:11:08;2.80;;;2.50;;
7969;SDS011;4030;52.362;9.206;2022-12-22T08:13:34;2.50;;;2.30;;
7969;SDS011;4030;52.362;9.206;2022-12-22T08:16:04;3.40;;;2.60;;
7969;SDS011;4030;52.362;9.206;2022-12-22T08:18:32;2.43;;;2.23;;
7969;SDS011;4030;52.362;9.206;2022-12-22T08:20:59;2.70;;;2.50;;
7969;SDS011;4030;52.362;9.206;2022-12-22T08:23:25;3.37;;;2.43;;
7969;SDS011;4030;52.362;9.206;2022-12-22T08:25:53;2.50;;;2.30;;
7969;SDS011;4030;52.362;9.206;2022-12-22T08:28:26;2.50;;;2.30;;
7969;SDS011;4030;52.362;9.206;2022-12-22T08:30:53;2.40;;;2.20;;
7969;SDS011;4030;52.362;9.206;2022-12-22T08:33:19;2.70;;;2.23;;
7969;SDS011;4030;52.362;9.206;2022-12-22T08:35:45;2.23;;;2.03;;
7969;SDS011;4030;52.362;9.206;2022-12-22T08:38:11;2.70;;;2.20;;
7969;SDS011;4030;52.362;9.206;2022-12-22T08:40:38;2.87;;;2.67;;
7969;SDS011;4030;52.362;9.206;2022-12-22T08:43:09;2.50;;;2.30;;
7969;SDS011;4030;52.362;9.206;2022-12-22T08:45:35;2.90;;;2.70;;
7969;SDS011;4030;52.362;9.206;2022-12-22T08:48:01;2.57;;;2.37;;
7969;SDS011;4030;52.362;9.206;2022-12-22T08:50:27;2.80;;;2.60;;
7969;SDS011;4030;52.362;9.206;2022-12-22T08:53:00;2.80;;;2.50;;
7969;SDS011;4030;52.362;9.206;2022-12-22T08:55:27;2.87;;;2.57;;
7969;SDS011;4030;52.362;9.206;2022-12-22T08:57:53;2.40;;;2.20;;
7969;SDS011;4030;52.362;9.206;2022-12-22T09:00:19;2.23;;;2.03;;
7969;SDS011;4030;52.362;9.206;2022-12-22T09:02:45;3.10;;;2.33;;
7969;SDS011;4030;52.362;9.206;2022-12-22T09:05:11;4.43;;;2.30;;
7969;SDS011;4030;52.362;9.206;2022-12-22T09:07:37;3.27;;;2.77;;
7969;SDS011;4030;52.362;9.206;2022-12-22T09:10:05;3.67;;;3.20;;
7969;SDS011;4030;52.362;9.206;2022-12-22T09:12:33;6.17;;;3.20;;
7969;SDS011;4030;52.362;9.206;2022-12-22T09:14:58;3.60;;;3.10;;
7969;SDS011;4030;52.362;9.206;2022-12-22T09:17:24;3.40;;;3.07;;
7969;SDS011;4030;52.362;9.206;2022-12-22T09:19:50;3.60;;;3.30;;
7969;SDS011;4030;52.362;9.206;2022-12-22T09:22:16;3.47;;;3.17;;
7969;SDS011;4030;52.362;9.206;2022-12-22T09:24:42;5.00;;;3.53;;
7969;SDS011;4030;52.362;9.206;2022-12-22T09:27:08;3.63;;;3.20;;
7969;SDS011;4030;52.362;9.206;2022-12-22T09:29:34;3.47;;;3.10;;
7969;SDS011;4030;52.362;9.206;2022-12-22T09:32:01;3.20;;;2.90;;
7969;SDS011;4030;52.362;9.206;2022-12-22T09:34:28;3.75;;;3.28;;
7969;SDS011;4030;52.362;9.206;2022-12-22T09:36:54;3.17;;;2.87;;
7969;SDS011;4030;52.362;9.206;2022-12-22T09:39:20;3.60;;;3.00;;
7969;SDS011;4030;52.362;9.206;2022-12-22T09:41:47;3.53;;;3.03;;
7969;SDS011;4030;52.362;9.206;2022-12-22T09:44:21;3.60;;;3.30;;
7969;SDS011;4030;52.362;9.206;2022-12-22T09:46:56;4.30;;;3.50;;
7969;SDS011;4030;52.362;9.206;2022-12-22T09:49:25;3.50;;;3.20;;
7969;SDS011;4030;52.362;9.206;2022-12-22T09:51:52;3.47;;;3.17;;
7969;SDS011;4030;52.362;9.206;2022-12-22T09:54:22;3.53;;;3.23;;
7969;SDS011;4030;52.362;9.206;2022-12-22T09:56:49;4.03;;;3.33;;
7969;SDS011;4030;52.362;9.206;2022-12-22T09:59:15;3.33;;;3.03;;
7969;SDS011;4030;52.362;9.206;2022-12-22T10:07:26;3.80;;;3.40;;
7969;SDS011;4030;52.362;9.206;2022-12-22T10:12:49;3.63;;;3.33;;
7969;SDS011;4030;52.362;9.206;2022-12-22T10:15:16;4.70;;;4.13;;
7969;SDS011;4030;52.362;9.206;2022-12-22T10:17:42;4.30;;;3.90;;
7969;SDS011;4030;52.362;9.206;2022-12-22T10:25:25;4.47;;;4.07;;
7969;SDS011;4030;52.362;9.206;2022-12-22T10:28:32;5.07;;;4.63;;
7969;SDS011;4030;52.362;9.206;2022-12-22T10:31:32;5.00;;;4.50;;
7969;SDS011;4030;52.362;9.206;2022-12-22T10:34:13;4.93;;;4.50;;
7969;SDS011;4030;52.362;9.206;2022-12-22T10:36:41;4.47;;;4.07;;
7969;SDS011;4030;52.362;9.206;2022-12-22T10:39:18;5.10;;;4.60;;
7969;SDS011;4030;52.362;9.206;2022-12-22T10:41:58;4.43;;;4.03;;
7969;SDS011;4030;52.362;9.206;2022-12-22T10:44:32;4.47;;;4.07;;
7969;SDS011;4030;52.362;9.206;2022-12-22T10:47:10;4.60;;;4.20;;
7969;SDS011;4030;52.362;9.206;2022-12-22T10:49:53;4.60;;;4.20;;
7969;SDS011;4030;52.362;9.206;2022-12-22T10:54:49;5.20;;;4.73;;
7969;SDS011;4030;52.362;9.206;2022-12-22T10:59:54;4.80;;;4.30;;
7969;SDS011;4030;52.362;9.206;2022-12-22T11:04:49;6.32;;;5.07;;
7969;SDS011;4030;52.362;9.206;2022-12-22T11:07:16;5.70;;;5.10;;
7969;SDS011;4030;52.362;9.206;2022-12-22T11:09:43;5.80;;;5.20;;
7969;SDS011;4030;52.362;9.206;2022-12-22T11:12:15;5.43;;;4.93;;
7969;SDS011;4030;52.362;9.206;2022-12-22T11:15:44;5.70;;;4.75;;
7969;SDS011;4030;52.362;9.206;2022-12-22T11:18:31;5.13;;;4.63;;
7969;SDS011;4030;52.362;9.206;2022-12-22T11:37:27;6.60;;;6.00;;
7969;SDS011;4030;52.362;9.206;2022-12-22T11:40:11;6.25;;;5.65;;
7969;SDS011;4030;52.362;9.206;2022-12-22T11:46:21;6.83;;;6.23;;
7969;SDS011;4030;52.362;9.206;2022-12-22T11:49:19;7.10;;;6.50;;
7969;SDS011;4030;52.362;9.206;2022-12-22T12:00:22;7.45;;;6.75;;
7969;SDS011;4030;52.362;9.206;2022-12-22T12:11:13;7.18;;;6.47;;
7969;SDS011;4030;52.362;9.206;2022-12-22T12:17:43;8.10;;;7.30;;
7969;SDS011;4030;52.362;9.206;2022-12-22T12:23:31;7.72;;;6.78;;
7969;SDS011;4030;52.362;9.206;2022-12-22T12:26:31;7.78;;;7.07;;
7969;SDS011;4030;52.362;9.206;2022-12-22T12:29:16;8.25;;;7.45;;
7969;SDS011;4030;52.362;9.206;2022-12-22T12:31:57;8.27;;;7.47;;
7969;SDS011;4030;52.362;9.206;2022-12-22T12:34:43;8.70;;;7.82;;
7969;SDS011;4030;52.362;9.206;2022-12-22T12:37:29;7.85;;;7.05;;
7969;SDS011;4030;52.362;9.206;2022-12-22T12:40:13;8.85;;;7.95;;
7969;SDS011;4030;52.362;9.206;2022-12-22T12:42:56;8.43;;;7.63;;
7969;SDS011;4030;52.362;9.206;2022-12-22T12:45:36;8.23;;;7.38;;
7969;SDS011;4030;52.362;9.206;2022-12-22T12:50:48;7.43;;;6.72;;
7969;SDS011;4030;52.362;9.206;2022-12-22T12:53:21;7.43;;;6.72;;
7969;SDS011;4030;52.362;9.206;2022-12-22T13:00:58;7.97;;;7.18;;
7969;SDS011;4030;52.362;9.206;2022-12-22T13:05:58;8.40;;;7.57;;
7969;SDS011;4030;52.362;9.206;2022-12-22T13:08:29;7.50;;;6.80;;
7969;SDS011;4030;52.362;9.206;2022-12-22T13:23:23;7.65;;;6.95;;
7969;SDS011;4030;52.362;9.206;2022-12-22T13:25:57;7.82;;;7.03;;
7969;SDS011;4030;52.362;9.206;2022-12-22T13:28:29;7.78;;;6.97;;
7969;SDS011;4030;52.362;9.206;2022-12-22T13:30:59;7.20;;;6.50;;
7969;SDS011;4030;52.362;9.206;2022-12-22T13:33:37;8.15;;;7.35;;
7969;SDS011;4030;52.362;9.206;2022-12-22T13:36:05;7.07;;;6.47;;
7969;SDS011;4030;52.362;9.206;2022-12-22T13:38:35;6.95;;;6.25;;
7969;SDS011;4030;52.362;9.206;2022-12-22T13:41:02;8.00;;;7.22;;
7969;SDS011;4030;52.362;9.206;2022-12-22T13:43:39;7.70;;;6.95;;
7969;SDS011;4030;52.362;9.206;2022-12-22T13:46:08;7.90;;;6.90;;
7969;SDS011;4030;52.362;9.206;2022-12-22T13:48:38;7.10;;;6.40;;
7969;SDS011;4030;52.362;9.206;2022-12-22T13:51:07;6.85;;;6.15;;
7969;SDS011;4030;52.362;9.206;2022-12-22T13:53:46;7.75;;;7.00;;
7969;SDS011;4030;52.362;9.206;2022-12-22T13:56:38;6.60;;;6.00;;
7969;SDS011;4030;52.362;9.206;2022-12-22T13:59:20;6.90;;;6.20;;
7969;SDS011;4030;52.362;9.206;2022-12-22T14:04:32;7.25;;;6.00;;
7969;SDS011;4030;52.362;9.206;2022-12-22T14:07:10;5.90;;;5.25;;
7969;SDS011;4030;52.362;9.206;2022-12-22T14:09:45;6.30;;;5.70;;
7969;SDS011;4030;52.362;9.206;2022-12-22T14:12:22;5.57;;;5.07;;
7969;SDS011;4030;52.362;9.206;2022-12-22T14:14:51;5.88;;;5.28;;
7969;SDS011;4030;52.362;9.206;2022-12-22T14:19:55;6.00;;;5.03;;
7969;SDS011;4030;52.362;9.206;2022-12-22T14:22:25;4.85;;;4.40;;
7969;SDS011;4030;52.362;9.206;2022-12-22T14:25:03;5.50;;;5.00;;
7969;SDS011;4030;52.362;9.206;2022-12-22T14:27:40;6.00;;;4.85;;
7969;SDS011;4030;52.362;9.206;2022-12-22T14:30:19;4.97;;;4.47;;
7969;SDS011;4030;52.362;9.206;2022-12-22T14:32:54;5.07;;;4.20;;
7969;SDS011;4030;52.362;9.206;2022-12-22T14:37:48;4.90;;;4.32;;
7969;SDS011;4030;52.362;9.206;2022-12-22T14:40:36;4.60;;;4.13;;
7969;SDS011;4030;52.362;9.206;2022-12-22T14:43:06;4.38;;;3.97;;
7969;SDS011;4030;52.362;9.206;2022-12-22T14:45:40;3.83;;;3.47;;
7969;SDS011;4030;52.362;9.206;2022-12-22T14:48:07;4.57;;;3.40;;
7969;SDS011;4030;52.362;9.206;2022-12-22T14:50:34;4.10;;;3.70;;
7969;SDS011;4030;52.362;9.206;2022-12-22T14:53:01;3.95;;;3.55;;
7969;SDS011;4030;52.362;9.206;2022-12-22T14:55:33;4.30;;;3.63;;
7969;SDS011;4030;52.362;9.206;2022-12-22T14:58:12;5.20;;;3.25;;
7969;SDS011;4030;52.362;9.206;2022-12-22T15:00:43;5.38;;;3.42;;
7969;SDS011;4030;52.362;9.206;2022-12-22T15:03:33;3.60;;;3.20;;
7969;SDS011;4030;52.362;9.206;2022-12-22T15:11:35;5.22;;;3.10;;
7969;SDS011;4030;52.362;9.206;2022-12-22T15:14:07;3.67;;;2.55;;
7969;SDS011;4030;52.362;9.206;2022-12-22T15:16:37;3.80;;;2.80;;
7969;SDS011;4030;52.362;9.206;2022-12-22T15:19:03;3.25;;;2.75;;
7969;SDS011;4030;52.362;9.206;2022-12-22T15:21:29;3.80;;;3.07;;
7969;SDS011;4030;52.362;9.206;2022-12-22T15:23:59;4.35;;;2.88;;
7969;SDS011;4030;52.362;9.206;2022-12-22T15:26:25;3.50;;;2.78;;
7969;SDS011;4030;52.362;9.206;2022-12-22T15:28:51;4.67;;;3.10;;
7969;SDS011;4030;52.362;9.206;2022-12-22T15:31:16;4.07;;;2.77;;
7969;SDS011;4030;52.362;9.206;2022-12-22T15:33:43;4.07;;;2.80;;
7969;SDS011;4030;52.362;9.206;2022-12-22T15:36:13;3.50;;;2.80;;
7969;SDS011;4030;52.362;9.206;2022-12-22T15:38:39;4.33;;;3.10;;
7969;SDS011;4030;52.362;9.206;2022-12-22T15:41:05;3.60;;;3.27;;
7969;SDS011;4030;52.362;9.206;2022-12-22T15:43:31;4.43;;;3.30;;
7969;SDS011;4030;52.362;9.206;2022-12-22T15:45:59;3.88;;;3.30;;
7969;SDS011;4030;52.362;9.206;2022-12-22T15:48:27;5.23;;;3.60;;
7969;SDS011;4030;52.362;9.206;2022-12-22T15:50:56;4.30;;;3.45;;
7969;SDS011;4030;52.362;9.206;2022-12-22T15:53:23;4.20;;;3.50;;
7969;SDS011;4030;52.362;9.206;2022-12-22T15:55:50;4.33;;;3.73;;
7969;SDS011;4030;52.362;9.206;2022-12-22T15:58:19;4.97;;;3.87;;
7969;SDS011;4030;52.362;9.206;2022-12-22T16:00:50;4.72;;;4.20;;
7969;SDS011;4030;52.362;9.206;2022-12-22T16:03:15;4.20;;;3.80;;
7969;SDS011;4030;52.362;9.206;2022-12-22T16:05:41;4.43;;;4.03;;
7969;SDS011;4030;52.362;9.206;2022-12-22T16:08:16;4.33;;;3.90;;
7969;SDS011;4030;52.362;9.206;2022-12-22T16:10:51;5.70;;;4.43;;
7969;SDS011;4030;52.362;9.206;2022-12-22T16:13:17;4.67;;;4.10;;
7969;SDS011;4030;52.362;9.206;2022-12-22T16:15:48;4.87;;;4.10;;
7969;SDS011;4030;52.362;9.206;2022-12-22T16:18:14;6.17;;;4.33;;
7969;SDS011;4030;52.362;9.206;2022-12-22T16:20:40;5.57;;;4.33;;
7969;SDS011;4030;52.362;9.206;2022-12-22T16:23:15;5.10;;;4.30;;
7969;SDS011;4030;52.362;9.206;2022-12-22T16:25:44;4.87;;;4.40;;
7969;SDS011;4030;52.362;9.206;2022-12-22T16:28:20;4.78;;;4.28;;
7969;SDS011;4030;52.362;9.206;2022-12-22T16:30:48;5.20;;;4.47;;
7969;SDS011;4030;52.362;9.206;2022-12-22T16:33:15;4.57;;;4.17;;
7969;SDS011;4030;52.362;9.206;2022-12-22T16:35:41;6.60;;;4.80;;
7969;SDS011;4030;52.362;9.206;2022-12-22T16:38:07;4.83;;;4.33;;
7969;SDS011;4030;52.362;9.206;2022-12-22T16:40:41;5.60;;;4.43;;
7969;SDS011;4030;52.362;9.206;2022-12-22T16:43:19;5.77;;;4.90;;
7969;SDS011;4030;52.362;9.206;2022-12-22T16:45:48;6.23;;;5.13;;
7969;SDS011;4030;52.362;9.206;2022-12-22T16:48:15;4.53;;;4.10;;
7969;SDS011;4030;52.362;9.206;2022-12-22T16:50:46;5.53;;;4.30;;
7969;SDS011;4030;52.362;9.206;2022-12-22T16:53:12;6.67;;;5.07;;
7969;SDS011;4030;52.362;9.206;2022-12-22T16:55:38;5.20;;;4.70;;
7969;SDS011;4030;52.362;9.206;2022-12-22T16:58:05;6.07;;;5.20;;
7969;SDS011;4030;52.362;9.206;2022-12-22T17:00:31;5.20;;;4.70;;
7969;SDS011;4030;52.362;9.206;2022-12-22T17:03:01;4.93;;;4.43;;
7969;SDS011;4030;52.362;9.206;2022-12-22T17:05:46;5.70;;;4.90;;
7969;SDS011;4030;52.362;9.206;2022-12-22T17:08:23;5.13;;;4.60;;
7969;SDS011;4030;52.362;9.206;2022-12-22T17:11:04;6.40;;;5.20;;
7969;SDS011;4030;52.362;9.206;2022-12-22T17:13:34;6.67;;;5.20;;
7969;SDS011;4030;52.362;9.206;2022-12-22T17:16:01;6.13;;;5.30;;
7969;SDS011;4030;52.362;9.206;2022-12-22T17:18:29;6.57;;;5.30;;
7969;SDS011;4030;52.362;9.206;2022-12-22T17:21:01;7.00;;;5.47;;
7969;SDS011;4030;52.362;9.206;2022-12-22T17:23:32;6.90;;;5.33;;
7969;SDS011;4030;52.362;9.206;2022-12-22T17:26:04;6.10;;;5.40;;
7969;SDS011;4030;52.362;9.206;2022-12-22T17:28:32;6.73;;;6.03;;
7969;SDS011;4030;52.362;9.206;2022-12-22T17:30:59;7.57;;;6.10;;
7969;SDS011;4030;52.362;9.206;2022-12-22T17:33:25;6.67;;;5.53;;
7969;SDS011;4030;52.362;9.206;2022-12-22T17:35:52;6.80;;;5.47;;
7969;SDS011;4030;52.362;9.206;2022-12-22T17:38:19;6.47;;;5.77;;
7969;SDS011;4030;52.362;9.206;2022-12-22T17:40:46;6.53;;;5.93;;
7969;SDS011;4030;52.362;9.206;2022-12-22T17:43:14;7.33;;;6.33;;
7969;SDS011;4030;52.362;9.206;2022-12-22T17:45:42;8.23;;;6.50;;
7969;SDS011;4030;52.362;9.206;2022-12-22T17:48:10;7.70;;;6.87;;
7969;SDS011;4030;52.362;9.206;2022-12-22T17:50:36;8.63;;;7.00;;